Aérodrome :
LOGIN :

S'inscrire | Disclaimer

   EN    FR    IT 

 










Légende :    VFR   VFR Marginal   IFR   IFR Intensif   IFR Très Intensif
Visi : 
Plafond : 
>= 8 km
>= 3000ft
5 à 8 km
1000 à 3000 ft
1500m à 5 km
500 à 1000 ft
800 à 1500m
200 à 500 ft
< 800m
< 200 ft
Symboles :   Orages  Brouillard  Fortes neiges  Fortes précipitations  Vent > 20 kt
SIGMETs :   Divers  Orages  Givrage  Turbulence  Onde Orograph.  Cendres Volcan.






- Altitude de l'aérodrome : 370 ft


EBBE - Beauvechain AB

DERNIER METAR :
  • 140855Z 15008KT 9999 BKN021 BKN030 06/02 Q0999 WHT BLU TEMPO GRN

METARs EXPIRÉS :
  • 140825Z 15009KT 9999 -RA BKN021 BKN028 05/02 Q0998 WHT BLU TEMPO GRN
  • 140807Z 14009KT 9000 -RA BKN023 05/02 Q0998 WHT BLU TEMPO GRN
  • 140755Z 14009KT 9999 BKN028 BKN040 06/02 Q0998 BLU BLU TEMPO GRN
  • 140725Z 13009KT 9999 BKN050 BKN080 05/02 Q0998 BLU BLU TEMPO GRN
  • 140703Z 13010KT 9999 BKN065 BKN090 05/02 Q0997 BLU BLU TEMPO GRN
  • 140625Z 13011KT 9999 BKN065 BKN090 06/02 Q0997 BLU BLU

TAF TAF EBBE
Valide du 14 à 07h jusqu'au 14 à 16h UTC


140541Z 1407/1416 15007KT 9999 BKN060
TEMPO 1408/1412 5000 -RA BKN020
PROB30
TEMPO 1409/1411 3000 RA SCT010 BKN015
BECMG 1411/1413 FEW018 SCT023



MET'MAP, la Météo Aéronautique d'un coup d'oeil ! - Copyright ORBIFLY Décembre 2007 - Disclaimer

ORBIFLY MET'MAP TEAM :

Programmation & Développement : Alexandra Zaïnal
Conception & Développement : Baudouin d'Aumeries
Co-Programmation & Développement : Marc-Olivier Méhu
Soutien technique & logistique : Manuel Goepfert

Contact : metmap@orbifly.com




SOURCES & CREDITS :

   NOAA